Aviation Digital Data Service (ADDS)

Output produced by METARs form (0233 UTC 16 January 2019)
found at http://www.aviationweather.gov/metar/data/
 
OAIX 160220Z 00000KT 3200 FU BKN100 00/M01 A3011 RMK AO2A PRESRR SLP169
TAF AMD OAIX 160203Z 1602/1705 VRB06KT 4000 FU BKN050 BKN110 OVC160 610509
QNH3005INS 
     BECMG 1602/1603 VRB06KT 3200 FU BKN050 BKN110 OVC160 610509 QNH3010INS 
     TEMPO 1604/1609 1600 FU 
     BECMG 1608/1609 VRB06KT 2400 FU SCT120 QNH3010INS 
     BECMG 1614/1615 33006KT 5000 HZ SKC QNH3017INS TX08/1610Z TNM01/1602Z
       
OAHR 160155Z VRB02KT CAVOK 06/03 Q1021 RMK A3017 BLU
TAF AMD OAHR 160100Z 1602/1624 09008KT CAVOK 
     BECMG 1615/1617 VRB02KT CAVOK
       
OAJL 160055Z 26002KT 8000 HZ FEW180 04/00 A3006 RMK AO2A SLP185 T00431003
TAF OAJL 160000Z 1600/1706 VRB06KT 5000 HZ BKN120 OVC140 QNH3006INS 
     TEMPO 1603/1607 4000 FU 
     BECMG 1607/1608 VRB06KT 5000 HZ SCT150 QNH3007INS 
     TEMPO 1613/1616 4000 HZ 
     BECMG 1615/1616 VRB06KT 6000 HZ SKC QNH3012INS TX17/1608Z TN04/1603Z
       
OAKB 160150Z 12002KT 1000 0700S FU SCT110 M01/M03 Q1019 NOSIG RMK A3011 AMB AMB
TAF OAKB 152305Z 1600/1624 VRB02KT 2000 FU SCT120 
     TEMPO 1600/1603 1000 
     BECMG 1603/1605 5000 
     BECMG 1606/1608 7000 NSW NSC 
     BECMG 1613/1615 2000 FU 
     PROB40 1618/1624 1000
       
OAKN 160155Z 00000KT 9999 BKN220 09/M10 A3008 RMK AO2A SLP160 WND DATA ESTMD Q1019 PA3157 DA3227 T00891099
TAF OAKN 152300Z 1523/1705 05006KT 9999 SCT120 BKN160 QNH3003INS 
     BECMG 1605/1606 09009KT 8000 HZ SCT100 QNH3005INS 
     BECMG 1609/1610 21006KT 9999 NSW FEW100 QNH3003INS 
     BECMG 1616/1617 04006KT 9999 SKC QNH3008INS TX21/1611Z TN07/1602Z
       
OAMS 160150Z 06005KT 9999 FEW080 BKN100 BKN180 09/07 Q1018 BLU BLU
TAF OAMS 152305Z 1600/1624 15008KT 9999 VCSH SCT050 BKN080 OVC120 
     TEMPO 1600/1602 19006KT 8000 RA BKN050 OVC080 
     TEMPO 1602/1606 VRB03KT 2500 FU SCT050 BKN080 
     BECMG 1604/1606 06011KT 9999 NSW SCT060 
     BECMG 1612/1614 24006KT 9000 NSW FEW060 
     PROB30 1614/1618 VRB03KT 3000 FU SCT060